sensor_id;sensor_type;location;lat;lon;timestamp;temperature;humidity
6375;DHT22;35400;45.472;-122.822;2022-09-29T00:02:07;20.90;99.90
6375;DHT22;35400;45.472;-122.822;2022-09-29T00:04:34;20.90;99.90
6375;DHT22;35400;45.472;-122.822;2022-09-29T00:07:01;20.80;99.90
6375;DHT22;35400;45.472;-122.822;2022-09-29T00:09:27;20.80;99.90
6375;DHT22;35400;45.472;-122.822;2022-09-29T00:11:55;20.80;99.90
6375;DHT22;35400;45.472;-122.822;2022-09-29T00:14:23;20.70;99.90
6375;DHT22;35400;45.472;-122.822;2022-09-29T00:16:50;20.60;99.90
6375;DHT22;35400;45.472;-122.822;2022-09-29T00:19:18;20.60;99.90
6375;DHT22;35400;45.472;-122.822;2022-09-29T00:21:45;20.50;99.90
6375;DHT22;35400;45.472;-122.822;2022-09-29T00:24:12;20.50;99.90
6375;DHT22;35400;45.472;-122.822;2022-09-29T00:26:38;20.50;99.90
6375;DHT22;35400;45.472;-122.822;2022-09-29T00:29:05;20.50;99.90
6375;DHT22;35400;45.472;-122.822;2022-09-29T00:31:33;20.50;99.90
6375;DHT22;35400;45.472;-122.822;2022-09-29T00:33:59;20.50;99.90
6375;DHT22;35400;45.472;-122.822;2022-09-29T00:36:26;20.50;99.90
6375;DHT22;35400;45.472;-122.822;2022-09-29T00:38:57;20.50;99.90
6375;DHT22;35400;45.472;-122.822;2022-09-29T00:41:27;20.50;99.90
6375;DHT22;35400;45.472;-122.822;2022-09-29T00:46:58;20.50;99.90
6375;DHT22;35400;45.472;-122.822;2022-09-29T00:52:20;20.40;99.90
6375;DHT22;35400;45.472;-122.822;2022-09-29T00:55:13;20.40;99.90
6375;DHT22;35400;45.472;-122.822;2022-09-29T00:58:26;20.30;99.90
6375;DHT22;35400;45.472;-122.822;2022-09-29T01:00:33;20.30;99.90
6375;DHT22;35400;45.472;-122.822;2022-09-29T01:03:04;20.30;99.90
6375;DHT22;35400;45.472;-122.822;2022-09-29T01:05:37;20.20;99.90
6375;DHT22;35400;45.472;-122.822;2022-09-29T01:08:16;20.20;99.90
6375;DHT22;35400;45.472;-122.822;2022-09-29T01:10:47;20.20;99.90
6375;DHT22;35400;45.472;-122.822;2022-09-29T01:13:17;20.10;99.90
6375;DHT22;35400;45.472;-122.822;2022-09-29T01:15:44;20.10;99.90
6375;DHT22;35400;45.472;-122.822;2022-09-29T01:18:11;20.10;99.90
6375;DHT22;35400;45.472;-122.822;2022-09-29T01:20:52;20.00;99.90
6375;DHT22;35400;45.472;-122.822;2022-09-29T01:33:53;19.80;99.90
6375;DHT22;35400;45.472;-122.822;2022-09-29T01:36:34;19.80;99.90
6375;DHT22;35400;45.472;-122.822;2022-09-29T01:39:31;19.70;99.90
6375;DHT22;35400;45.472;-122.822;2022-09-29T01:42:11;19.70;99.90
6375;DHT22;35400;45.472;-122.822;2022-09-29T01:44:47;19.70;99.90
6375;DHT22;35400;45.472;-122.822;2022-09-29T01:47:29;19.60;99.90
6375;DHT22;35400;45.472;-122.822;2022-09-29T01:50:02;19.60;99.90
6375;DHT22;35400;45.472;-122.822;2022-09-29T01:52:32;19.60;99.90
6375;DHT22;35400;45.472;-122.822;2022-09-29T01:55:07;19.50;99.90
6375;DHT22;35400;45.472;-122.822;2022-09-29T01:57:54;19.50;99.90
6375;DHT22;35400;45.472;-122.822;2022-09-29T02:00:25;19.50;99.90
6375;DHT22;35400;45.472;-122.822;2022-09-29T02:06:03;19.40;99.90
6375;DHT22;35400;45.472;-122.822;2022-09-29T02:11:16;19.30;99.90
6375;DHT22;35400;45.472;-122.822;2022-09-29T02:13:51;19.30;99.90
6375;DHT22;35400;45.472;-122.822;2022-09-29T02:16:27;19.30;99.90
6375;DHT22;35400;45.472;-122.822;2022-09-29T02:19:00;19.30;99.90
6375;DHT22;35400;45.472;-122.822;2022-09-29T02:21:28;19.20;99.90
6375;DHT22;35400;45.472;-122.822;2022-09-29T02:23:55;19.20;99.90
6375;DHT22;35400;45.472;-122.822;2022-09-29T02:26:24;19.20;99.90
6375;DHT22;35400;45.472;-122.822;2022-09-29T02:28:54;19.20;99.90
6375;DHT22;35400;45.472;-122.822;2022-09-29T02:31:21;19.10;99.90
6375;DHT22;35400;45.472;-122.822;2022-09-29T02:33:48;19.10;99.90
6375;DHT22;35400;45.472;-122.822;2022-09-29T02:39:01;19.10;99.90
6375;DHT22;35400;45.472;-122.822;2022-09-29T02:41:47;19.00;99.90
6375;DHT22;35400;45.472;-122.822;2022-09-29T02:44:36;19.00;99.90
6375;DHT22;35400;45.472;-122.822;2022-09-29T02:54:46;18.90;99.90
6375;DHT22;35400;45.472;-122.822;2022-09-29T02:57:38;18.90;99.90
6375;DHT22;35400;45.472;-122.822;2022-09-29T03:00:13;18.80;99.90
6375;DHT22;35400;45.472;-122.822;2022-09-29T03:02:42;18.80;99.90
6375;DHT22;35400;45.472;-122.822;2022-09-29T03:05:12;18.80;99.90
6375;DHT22;35400;45.472;-122.822;2022-09-29T03:07:39;18.70;99.90
6375;DHT22;35400;45.472;-122.822;2022-09-29T03:10:08;18.60;99.90
6375;DHT22;35400;45.472;-122.822;2022-09-29T03:12:36;18.50;99.90
6375;DHT22;35400;45.472;-122.822;2022-09-29T03:15:03;18.50;99.90
6375;DHT22;35400;45.472;-122.822;2022-09-29T03:17:30;18.40;99.90
6375;DHT22;35400;45.472;-122.822;2022-09-29T03:19:57;18.40;99.90
6375;DHT22;35400;45.472;-122.822;2022-09-29T03:22:24;18.30;99.90
6375;DHT22;35400;45.472;-122.822;2022-09-29T03:24:51;18.30;99.90
6375;DHT22;35400;45.472;-122.822;2022-09-29T03:27:18;18.20;99.90
6375;DHT22;35400;45.472;-122.822;2022-09-29T03:29:45;18.20;99.90
6375;DHT22;35400;45.472;-122.822;2022-09-29T03:32:12;18.10;99.90
6375;DHT22;35400;45.472;-122.822;2022-09-29T03:34:39;18.00;99.90
6375;DHT22;35400;45.472;-122.822;2022-09-29T03:37:05;18.00;99.90
6375;DHT22;35400;45.472;-122.822;2022-09-29T03:39:32;17.90;99.90
6375;DHT22;35400;45.472;-122.822;2022-09-29T03:41:59;17.80;99.90
6375;DHT22;35400;45.472;-122.822;2022-09-29T03:44:26;17.80;99.90
6375;DHT22;35400;45.472;-122.822;2022-09-29T03:46:53;17.70;99.90
6375;DHT22;35400;45.472;-122.822;2022-09-29T03:49:20;17.70;99.90
6375;DHT22;35400;45.472;-122.822;2022-09-29T03:51:47;17.60;99.90
6375;DHT22;35400;45.472;-122.822;2022-09-29T03:54:14;17.50;99.90
6375;DHT22;35400;45.472;-122.822;2022-09-29T03:56:40;17.50;99.90
6375;DHT22;35400;45.472;-122.822;2022-09-29T03:59:08;17.40;99.90
6375;DHT22;35400;45.472;-122.822;2022-09-29T04:01:37;17.40;99.90
6375;DHT22;35400;45.472;-122.822;2022-09-29T04:04:04;17.40;99.90
6375;DHT22;35400;45.472;-122.822;2022-09-29T04:06:32;17.40;99.90
6375;DHT22;35400;45.472;-122.822;2022-09-29T04:08:59;17.30;99.90
6375;DHT22;35400;45.472;-122.822;2022-09-29T04:11:26;17.30;99.90
6375;DHT22;35400;45.472;-122.822;2022-09-29T04:13:53;17.30;99.90
6375;DHT22;35400;45.472;-122.822;2022-09-29T04:16:20;17.20;99.90
6375;DHT22;35400;45.472;-122.822;2022-09-29T04:18:47;17.20;99.90
6375;DHT22;35400;45.472;-122.822;2022-09-29T04:21:14;17.20;99.90
6375;DHT22;35400;45.472;-122.822;2022-09-29T04:23:42;17.10;99.90
6375;DHT22;35400;45.472;-122.822;2022-09-29T04:26:09;17.10;99.90
6375;DHT22;35400;45.472;-122.822;2022-09-29T04:28:36;17.10;99.90
6375;DHT22;35400;45.472;-122.822;2022-09-29T04:31:04;17.10;99.90
6375;DHT22;35400;45.472;-122.822;2022-09-29T04:33:31;17.10;99.90
6375;DHT22;35400;45.472;-122.822;2022-09-29T04:35:58;17.10;99.90
6375;DHT22;35400;45.472;-122.822;2022-09-29T04:38:26;17.10;99.90
6375;DHT22;35400;45.472;-122.822;2022-09-29T04:40:52;17.10;99.90
6375;DHT22;35400;45.472;-122.822;2022-09-29T04:43:19;17.00;99.90
6375;DHT22;35400;45.472;-122.822;2022-09-29T04:45:46;17.00;99.90
6375;DHT22;35400;45.472;-122.822;2022-09-29T04:48:13;16.90;99.90
6375;DHT22;35400;45.472;-122.822;2022-09-29T04:50:40;16.90;99.90
6375;DHT22;35400;45.472;-122.822;2022-09-29T04:53:08;16.80;99.90
6375;DHT22;35400;45.472;-122.822;2022-09-29T04:55:36;16.80;99.90
6375;DHT22;35400;45.472;-122.822;2022-09-29T04:58:03;16.70;99.90
6375;DHT22;35400;45.472;-122.822;2022-09-29T05:00:30;16.60;99.90
6375;DHT22;35400;45.472;-122.822;2022-09-29T05:02:58;16.60;99.90
6375;DHT22;35400;45.472;-122.822;2022-09-29T05:05:26;16.60;99.90
6375;DHT22;35400;45.472;-122.822;2022-09-29T05:07:53;16.50;99.90
6375;DHT22;35400;45.472;-122.822;2022-09-29T05:10:19;16.40;99.90
6375;DHT22;35400;45.472;-122.822;2022-09-29T05:12:48;16.40;99.90
6375;DHT22;35400;45.472;-122.822;2022-09-29T05:15:17;16.40;99.90
6375;DHT22;35400;45.472;-122.822;2022-09-29T05:17:44;16.30;99.90
6375;DHT22;35400;45.472;-122.822;2022-09-29T05:20:11;16.30;99.90
6375;DHT22;35400;45.472;-122.822;2022-09-29T05:22:38;16.30;99.90
6375;DHT22;35400;45.472;-122.822;2022-09-29T05:25:05;16.20;99.90
6375;DHT22;35400;45.472;-122.822;2022-09-29T05:27:37;16.20;99.90
6375;DHT22;35400;45.472;-122.822;2022-09-29T05:30:04;16.20;99.90
6375;DHT22;35400;45.472;-122.822;2022-09-29T05:32:31;16.20;99.90
6375;DHT22;35400;45.472;-122.822;2022-09-29T05:34:58;16.20;99.90
6375;DHT22;35400;45.472;-122.822;2022-09-29T05:37:25;16.10;99.90
6375;DHT22;35400;45.472;-122.822;2022-09-29T05:39:52;16.10;99.90
6375;DHT22;35400;45.472;-122.822;2022-09-29T05:42:18;16.10;99.90
6375;DHT22;35400;45.472;-122.822;2022-09-29T05:44:45;16.10;99.90
6375;DHT22;35400;45.472;-122.822;2022-09-29T05:47:12;16.10;99.90
6375;DHT22;35400;45.472;-122.822;2022-09-29T05:49:39;16.10;99.90
6375;DHT22;35400;45.472;-122.822;2022-09-29T05:52:06;16.00;99.90
6375;DHT22;35400;45.472;-122.822;2022-09-29T05:54:32;16.00;99.90
6375;DHT22;35400;45.472;-122.822;2022-09-29T05:56:59;16.00;99.90
6375;DHT22;35400;45.472;-122.822;2022-09-29T05:59:26;16.00;99.90
6375;DHT22;35400;45.472;-122.822;2022-09-29T06:01:53;16.00;99.90
6375;DHT22;35400;45.472;-122.822;2022-09-29T06:04:19;16.00;99.90
6375;DHT22;35400;45.472;-122.822;2022-09-29T06:06:46;16.00;99.90
6375;DHT22;35400;45.472;-122.822;2022-09-29T06:09:13;16.00;99.90
6375;DHT22;35400;45.472;-122.822;2022-09-29T06:11:40;16.00;99.90
6375;DHT22;35400;45.472;-122.822;2022-09-29T06:14:07;16.00;99.90
6375;DHT22;35400;45.472;-122.822;2022-09-29T06:16:34;15.90;99.90
6375;DHT22;35400;45.472;-122.822;2022-09-29T06:19:03;15.90;99.90
6375;DHT22;35400;45.472;-122.822;2022-09-29T06:21:31;15.90;99.90
6375;DHT22;35400;45.472;-122.822;2022-09-29T06:24:00;15.90;99.90
6375;DHT22;35400;45.472;-122.822;2022-09-29T06:26:27;15.90;99.90
6375;DHT22;35400;45.472;-122.822;2022-09-29T06:28:55;15.90;99.90
6375;DHT22;35400;45.472;-122.822;2022-09-29T06:31:25;15.90;99.90
6375;DHT22;35400;45.472;-122.822;2022-09-29T06:33:52;15.90;99.90
6375;DHT22;35400;45.472;-122.822;2022-09-29T06:36:39;15.90;99.90
6375;DHT22;35400;45.472;-122.822;2022-09-29T06:39:25;15.90;99.90
6375;DHT22;35400;45.472;-122.822;2022-09-29T06:41:52;15.90;99.90
6375;DHT22;35400;45.472;-122.822;2022-09-29T06:44:23;15.90;99.90
6375;DHT22;35400;45.472;-122.822;2022-09-29T06:46:51;15.90;99.90
6375;DHT22;35400;45.472;-122.822;2022-09-29T06:49:18;15.90;99.90
6375;DHT22;35400;45.472;-122.822;2022-09-29T06:51:45;15.90;99.90
6375;DHT22;35400;45.472;-122.822;2022-09-29T06:54:14;15.90;99.90
6375;DHT22;35400;45.472;-122.822;2022-09-29T06:56:41;15.90;99.90
6375;DHT22;35400;45.472;-122.822;2022-09-29T06:59:08;15.90;99.90
6375;DHT22;35400;45.472;-122.822;2022-09-29T07:01:35;15.90;99.90
6375;DHT22;35400;45.472;-122.822;2022-09-29T07:04:02;15.90;99.90
6375;DHT22;35400;45.472;-122.822;2022-09-29T07:06:29;15.90;99.90
6375;DHT22;35400;45.472;-122.822;2022-09-29T07:08:57;15.90;99.90
6375;DHT22;35400;45.472;-122.822;2022-09-29T07:11:25;15.90;99.90
6375;DHT22;35400;45.472;-122.822;2022-09-29T07:13:52;15.90;99.90
6375;DHT22;35400;45.472;-122.822;2022-09-29T07:16:19;15.90;99.90
6375;DHT22;35400;45.472;-122.822;2022-09-29T07:18:49;15.80;99.90
6375;DHT22;35400;45.472;-122.822;2022-09-29T07:21:16;15.80;99.90
6375;DHT22;35400;45.472;-122.822;2022-09-29T07:23:45;15.80;99.90
6375;DHT22;35400;45.472;-122.822;2022-09-29T07:26:13;15.80;99.90
6375;DHT22;35400;45.472;-122.822;2022-09-29T07:28:41;15.80;99.90
6375;DHT22;35400;45.472;-122.822;2022-09-29T07:31:11;15.80;99.90
6375;DHT22;35400;45.472;-122.822;2022-09-29T07:33:38;15.80;99.90
6375;DHT22;35400;45.472;-122.822;2022-09-29T07:36:05;15.70;99.90
6375;DHT22;35400;45.472;-122.822;2022-09-29T07:38:32;15.70;99.90
6375;DHT22;35400;45.472;-122.822;2022-09-29T07:41:10;15.70;99.90
6375;DHT22;35400;45.472;-122.822;2022-09-29T07:43:37;15.70;99.90
6375;DHT22;35400;45.472;-122.822;2022-09-29T07:46:05;15.70;99.90
6375;DHT22;35400;45.472;-122.822;2022-09-29T07:48:33;15.70;99.90
6375;DHT22;35400;45.472;-122.822;2022-09-29T07:51:09;15.70;99.90
6375;DHT22;35400;45.472;-122.822;2022-09-29T07:53:37;15.70;99.90
6375;DHT22;35400;45.472;-122.822;2022-09-29T07:56:06;15.60;99.90
6375;DHT22;35400;45.472;-122.822;2022-09-29T07:58:34;15.60;99.90
6375;DHT22;35400;45.472;-122.822;2022-09-29T08:01:01;15.60;99.90
6375;DHT22;35400;45.472;-122.822;2022-09-29T08:03:30;15.60;99.90
6375;DHT22;35400;45.472;-122.822;2022-09-29T08:05:58;15.60;99.90
6375;DHT22;35400;45.472;-122.822;2022-09-29T08:08:25;15.60;99.90
6375;DHT22;35400;45.472;-122.822;2022-09-29T08:10:59;15.60;99.90
6375;DHT22;35400;45.472;-122.822;2022-09-29T08:13:26;15.60;99.90
6375;DHT22;35400;45.472;-122.822;2022-09-29T08:16:00;15.60;99.90
6375;DHT22;35400;45.472;-122.822;2022-09-29T08:18:28;15.60;99.90
6375;DHT22;35400;45.472;-122.822;2022-09-29T08:20:55;15.60;99.90
6375;DHT22;35400;45.472;-122.822;2022-09-29T08:23:23;15.60;99.90
6375;DHT22;35400;45.472;-122.822;2022-09-29T08:25:57;15.60;99.90
6375;DHT22;35400;45.472;-122.822;2022-09-29T08:28:24;15.60;99.90
6375;DHT22;35400;45.472;-122.822;2022-09-29T08:30:51;15.60;99.90
6375;DHT22;35400;45.472;-122.822;2022-09-29T08:33:17;15.60;99.90
6375;DHT22;35400;45.472;-122.822;2022-09-29T08:35:44;15.60;99.90
6375;DHT22;35400;45.472;-122.822;2022-09-29T08:38:11;15.60;99.90
6375;DHT22;35400;45.472;-122.822;2022-09-29T08:40:39;15.60;99.90
6375;DHT22;35400;45.472;-122.822;2022-09-29T08:43:24;15.60;99.90
6375;DHT22;35400;45.472;-122.822;2022-09-29T08:48:37;15.50;99.90
6375;DHT22;35400;45.472;-122.822;2022-09-29T08:51:35;15.50;99.90
6375;DHT22;35400;45.472;-122.822;2022-09-29T08:54:26;15.50;99.90
6375;DHT22;35400;45.472;-122.822;2022-09-29T08:56:56;15.50;99.90
6375;DHT22;35400;45.472;-122.822;2022-09-29T08:59:23;15.50;99.90
6375;DHT22;35400;45.472;-122.822;2022-09-29T09:02:06;15.40;99.90
6375;DHT22;35400;45.472;-122.822;2022-09-29T09:04:42;15.40;99.90
6375;DHT22;35400;45.472;-122.822;2022-09-29T09:10:24;15.40;99.90
6375;DHT22;35400;45.472;-122.822;2022-09-29T09:13:09;15.40;99.90
6375;DHT22;35400;45.472;-122.822;2022-09-29T09:21:51;15.30;99.90
6375;DHT22;35400;45.472;-122.822;2022-09-29T09:24:31;15.30;99.90
6375;DHT22;35400;45.472;-122.822;2022-09-29T09:26:59;15.30;99.90
6375;DHT22;35400;45.472;-122.822;2022-09-29T09:29:36;15.30;99.90
6375;DHT22;35400;45.472;-122.822;2022-09-29T09:32:39;15.30;99.90
6375;DHT22;35400;45.472;-122.822;2022-09-29T09:37:54;15.20;99.90
6375;DHT22;35400;45.472;-122.822;2022-09-29T09:40:35;15.20;99.90
6375;DHT22;35400;45.472;-122.822;2022-09-29T09:43:10;15.20;99.90
6375;DHT22;35400;45.472;-122.822;2022-09-29T09:48:34;15.20;99.90
6375;DHT22;35400;45.472;-122.822;2022-09-29T09:53:48;15.20;99.90
6375;DHT22;35400;45.472;-122.822;2022-09-29T09:57:10;15.20;99.90
6375;DHT22;35400;45.472;-122.822;2022-09-29T09:59:29;15.20;99.90
6375;DHT22;35400;45.472;-122.822;2022-09-29T10:01:59;15.20;99.90
6375;DHT22;35400;45.472;-122.822;2022-09-29T10:04:27;15.20;99.90
6375;DHT22;35400;45.472;-122.822;2022-09-29T10:06:54;15.20;99.90
6375;DHT22;35400;45.472;-122.822;2022-09-29T10:09:22;15.20;99.90
6375;DHT22;35400;45.472;-122.822;2022-09-29T10:11:49;15.20;99.90
6375;DHT22;35400;45.472;-122.822;2022-09-29T10:14:25;15.20;99.90
6375;DHT22;35400;45.472;-122.822;2022-09-29T10:17:05;15.20;99.90
6375;DHT22;35400;45.472;-122.822;2022-09-29T10:20:01;15.20;99.90
6375;DHT22;35400;45.472;-122.822;2022-09-29T10:22:29;15.20;99.90
6375;DHT22;35400;45.472;-122.822;2022-09-29T10:25:17;15.20;99.90
6375;DHT22;35400;45.472;-122.822;2022-09-29T10:27:49;15.20;99.90
6375;DHT22;35400;45.472;-122.822;2022-09-29T10:30:22;15.20;99.90
6375;DHT22;35400;45.472;-122.822;2022-09-29T10:32:57;15.20;99.90
6375;DHT22;35400;45.472;-122.822;2022-09-29T10:35:32;15.20;99.90
6375;DHT22;35400;45.472;-122.822;2022-09-29T10:38:24;15.20;99.90
6375;DHT22;35400;45.472;-122.822;2022-09-29T10:40:56;15.20;99.90
6375;DHT22;35400;45.472;-122.822;2022-09-29T10:43:38;15.20;99.90
6375;DHT22;35400;45.472;-122.822;2022-09-29T10:46:33;15.20;99.90
6375;DHT22;35400;45.472;-122.822;2022-09-29T10:49:12;15.20;99.90
6375;DHT22;35400;45.472;-122.822;2022-09-29T10:51:41;15.20;99.90
6375;DHT22;35400;45.472;-122.822;2022-09-29T10:54:15;15.20;99.90
6375;DHT22;35400;45.472;-122.822;2022-09-29T10:56:47;15.20;99.90
6375;DHT22;35400;45.472;-122.822;2022-09-29T10:59:16;15.20;99.90
6375;DHT22;35400;45.472;-122.822;2022-09-29T11:01:49;15.20;99.90
6375;DHT22;35400;45.472;-122.822;2022-09-29T11:06:46;15.20;99.90
6375;DHT22;35400;45.472;-122.822;2022-09-29T11:19:54;15.20;99.90
6375;DHT22;35400;45.472;-122.822;2022-09-29T11:25:42;15.20;99.90
6375;DHT22;35400;45.472;-122.822;2022-09-29T11:28:15;15.20;99.90
6375;DHT22;35400;45.472;-122.822;2022-09-29T11:31:15;15.10;99.90
6375;DHT22;35400;45.472;-122.822;2022-09-29T11:34:10;15.20;99.90
6375;DHT22;35400;45.472;-122.822;2022-09-29T11:45:10;15.20;99.90
6375;DHT22;35400;45.472;-122.822;2022-09-29T11:53:31;15.20;99.90
6375;DHT22;35400;45.472;-122.822;2022-09-29T12:15:15;15.10;99.90
6375;DHT22;35400;45.472;-122.822;2022-09-29T12:17:50;15.20;99.90
6375;DHT22;35400;45.472;-122.822;2022-09-29T12:20:34;15.10;99.90
6375;DHT22;35400;45.472;-122.822;2022-09-29T12:23:04;15.20;99.90
6375;DHT22;35400;45.472;-122.822;2022-09-29T12:25:38;15.10;99.90
6375;DHT22;35400;45.472;-122.822;2022-09-29T12:28:17;15.10;99.90
6375;DHT22;35400;45.472;-122.822;2022-09-29T12:30:54;15.20;99.90
6375;DHT22;35400;45.472;-122.822;2022-09-29T12:44:57;15.10;99.90
6375;DHT22;35400;45.472;-122.822;2022-09-29T12:47:40;15.20;99.90
6375;DHT22;35400;45.472;-122.822;2022-09-29T12:50:26;15.20;99.90
6375;DHT22;35400;45.472;-122.822;2022-09-29T12:53:09;15.10;99.90
6375;DHT22;35400;45.472;-122.822;2022-09-29T12:55:55;15.10;99.90
6375;DHT22;35400;45.472;-122.822;2022-09-29T12:58:50;15.10;99.90
6375;DHT22;35400;45.472;-122.822;2022-09-29T13:04:08;15.10;99.90
6375;DHT22;35400;45.472;-122.822;2022-09-29T13:17:47;15.10;99.90
6375;DHT22;35400;45.472;-122.822;2022-09-29T13:23:44;15.10;99.90
6375;DHT22;35400;45.472;-122.822;2022-09-29T13:29:13;15.10;99.90
6375;DHT22;35400;45.472;-122.822;2022-09-29T13:31:43;15.10;99.90
6375;DHT22;35400;45.472;-122.822;2022-09-29T13:34:37;15.10;99.90
6375;DHT22;35400;45.472;-122.822;2022-09-29T13:37:25;15.10;99.90
6375;DHT22;35400;45.472;-122.822;2022-09-29T13:40:02;15.10;99.90
6375;DHT22;35400;45.472;-122.822;2022-09-29T13:42:43;15.10;99.90
6375;DHT22;35400;45.472;-122.822;2022-09-29T13:47:56;15.10;99.90
6375;DHT22;35400;45.472;-122.822;2022-09-29T13:53:26;15.20;99.90
6375;DHT22;35400;45.472;-122.822;2022-09-29T13:58:31;15.20;99.90
6375;DHT22;35400;45.472;-122.822;2022-09-29T14:01:05;15.20;99.90
6375;DHT22;35400;45.472;-122.822;2022-09-29T14:03:35;15.20;99.90
6375;DHT22;35400;45.472;-122.822;2022-09-29T14:06:18;15.20;99.90
6375;DHT22;35400;45.472;-122.822;2022-09-29T14:11:48;15.20;99.90
6375;DHT22;35400;45.472;-122.822;2022-09-29T14:14:33;15.30;99.90
6375;DHT22;35400;45.472;-122.822;2022-09-29T14:17:19;15.20;99.90
6375;DHT22;35400;45.472;-122.822;2022-09-29T14:19:58;15.20;99.90
6375;DHT22;35400;45.472;-122.822;2022-09-29T14:28:02;15.30;99.90
6375;DHT22;35400;45.472;-122.822;2022-09-29T14:35:34;15.30;99.90
6375;DHT22;35400;45.472;-122.822;2022-09-29T14:38:26;15.40;99.90
6375;DHT22;35400;45.472;-122.822;2022-09-29T14:40:55;15.40;99.90
6375;DHT22;35400;45.472;-122.822;2022-09-29T14:46:23;15.40;99.90
6375;DHT22;35400;45.472;-122.822;2022-09-29T14:52:56;15.40;99.90
6375;DHT22;35400;45.472;-122.822;2022-09-29T14:56:26;15.40;99.90
6375;DHT22;35400;45.472;-122.822;2022-09-29T14:58:51;15.50;99.90
6375;DHT22;35400;45.472;-122.822;2022-09-29T15:04:04;15.50;99.90
6375;DHT22;35400;45.472;-122.822;2022-09-29T15:06:32;15.50;99.90
6375;DHT22;35400;45.472;-122.822;2022-09-29T15:09:01;15.50;99.90
6375;DHT22;35400;45.472;-122.822;2022-09-29T15:11:41;15.60;99.90
6375;DHT22;35400;45.472;-122.822;2022-09-29T15:14:28;15.60;99.90
6375;DHT22;35400;45.472;-122.822;2022-09-29T15:23:42;15.70;99.90
6375;DHT22;35400;45.472;-122.822;2022-09-29T15:25:43;15.70;99.90
6375;DHT22;35400;45.472;-122.822;2022-09-29T15:28:16;15.80;99.90
6375;DHT22;35400;45.472;-122.822;2022-09-29T15:30:48;15.80;99.90
6375;DHT22;35400;45.472;-122.822;2022-09-29T15:33:29;15.80;99.90
6375;DHT22;35400;45.472;-122.822;2022-09-29T15:36:05;15.80;99.90
6375;DHT22;35400;45.472;-122.822;2022-09-29T15:38:37;15.80;99.90
6375;DHT22;35400;45.472;-122.822;2022-09-29T15:41:15;15.90;99.90
6375;DHT22;35400;45.472;-122.822;2022-09-29T15:44:00;15.90;99.90
6375;DHT22;35400;45.472;-122.822;2022-09-29T15:46:36;15.90;99.90
6375;DHT22;35400;45.472;-122.822;2022-09-29T15:49:14;15.90;99.90
6375;DHT22;35400;45.472;-122.822;2022-09-29T15:51:54;16.00;99.90
6375;DHT22;35400;45.472;-122.822;2022-09-29T15:54:23;16.00;99.90
6375;DHT22;35400;45.472;-122.822;2022-09-29T15:56:50;16.00;99.90
6375;DHT22;35400;45.472;-122.822;2022-09-29T15:59:43;16.00;99.90
6375;DHT22;35400;45.472;-122.822;2022-09-29T16:02:28;16.10;99.90
6375;DHT22;35400;45.472;-122.822;2022-09-29T16:05:05;16.10;99.90
6375;DHT22;35400;45.472;-122.822;2022-09-29T16:07:37;16.10;99.90
6375;DHT22;35400;45.472;-122.822;2022-09-29T16:10:17;16.20;99.90
6375;DHT22;35400;45.472;-122.822;2022-09-29T16:12:53;16.20;99.90
6375;DHT22;35400;45.472;-122.822;2022-09-29T16:15:33;16.30;99.90
6375;DHT22;35400;45.472;-122.822;2022-09-29T16:18:05;16.30;99.90
6375;DHT22;35400;45.472;-122.822;2022-09-29T16:20:34;16.30;99.90
6375;DHT22;35400;45.472;-122.822;2022-09-29T16:23:21;16.30;99.90
6375;DHT22;35400;45.472;-122.822;2022-09-29T16:26:19;16.40;99.90
6375;DHT22;35400;45.472;-122.822;2022-09-29T16:31:45;16.40;99.90
6375;DHT22;35400;45.472;-122.822;2022-09-29T16:34:32;16.50;99.90
6375;DHT22;35400;45.472;-122.822;2022-09-29T16:37:05;16.50;99.90
6375;DHT22;35400;45.472;-122.822;2022-09-29T16:39:45;16.50;99.90
6375;DHT22;35400;45.472;-122.822;2022-09-29T16:42:26;16.60;99.90
6375;DHT22;35400;45.472;-122.822;2022-09-29T16:44:54;16.60;99.90
6375;DHT22;35400;45.472;-122.822;2022-09-29T16:47:27;16.60;99.90
6375;DHT22;35400;45.472;-122.822;2022-09-29T16:49:57;16.70;99.90
6375;DHT22;35400;45.472;-122.822;2022-09-29T16:55:19;16.70;99.90
6375;DHT22;35400;45.472;-122.822;2022-09-29T16:57:54;16.70;99.90
6375;DHT22;35400;45.472;-122.822;2022-09-29T17:00:21;16.80;99.90
6375;DHT22;35400;45.472;-122.822;2022-09-29T17:02:52;16.80;99.90
6375;DHT22;35400;45.472;-122.822;2022-09-29T17:05:21;16.80;99.90
6375;DHT22;35400;45.472;-122.822;2022-09-29T17:07:49;16.80;99.90
6375;DHT22;35400;45.472;-122.822;2022-09-29T17:10:19;16.80;99.90
6375;DHT22;35400;45.472;-122.822;2022-09-29T17:12:47;16.90;99.90
6375;DHT22;35400;45.472;-122.822;2022-09-29T17:15:14;16.90;99.90
6375;DHT22;35400;45.472;-122.822;2022-09-29T17:17:47;16.90;99.90
6375;DHT22;35400;45.472;-122.822;2022-09-29T17:20:20;16.90;99.90
6375;DHT22;35400;45.472;-122.822;2022-09-29T17:22:55;17.00;99.90
6375;DHT22;35400;45.472;-122.822;2022-09-29T17:25:22;16.90;99.90
6375;DHT22;35400;45.472;-122.822;2022-09-29T17:27:49;16.90;99.90
6375;DHT22;35400;45.472;-122.822;2022-09-29T17:30:34;16.90;99.90
6375;DHT22;35400;45.472;-122.822;2022-09-29T17:33:01;16.90;99.90
6375;DHT22;35400;45.472;-122.822;2022-09-29T17:35:39;16.90;99.90
6375;DHT22;35400;45.472;-122.822;2022-09-29T17:38:07;16.90;99.90
6375;DHT22;35400;45.472;-122.822;2022-09-29T17:40:59;16.90;99.90
6375;DHT22;35400;45.472;-122.822;2022-09-29T17:43:30;16.90;99.90
6375;DHT22;35400;45.472;-122.822;2022-09-29T17:45:59;16.90;99.90
6375;DHT22;35400;45.472;-122.822;2022-09-29T17:48:27;16.80;99.90
6375;DHT22;35400;45.472;-122.822;2022-09-29T17:50:55;16.90;99.90
6375;DHT22;35400;45.472;-122.822;2022-09-29T17:53:24;16.90;99.90
6375;DHT22;35400;45.472;-122.822;2022-09-29T17:55:52;16.90;99.90
6375;DHT22;35400;45.472;-122.822;2022-09-29T17:58:20;17.00;99.90
6375;DHT22;35400;45.472;-122.822;2022-09-29T18:00:50;17.00;99.90
6375;DHT22;35400;45.472;-122.822;2022-09-29T18:03:19;17.00;99.90
6375;DHT22;35400;45.472;-122.822;2022-09-29T18:05:48;17.00;99.90
6375;DHT22;35400;45.472;-122.822;2022-09-29T18:08:22;17.10;99.90
6375;DHT22;35400;45.472;-122.822;2022-09-29T18:10:52;17.10;99.90
6375;DHT22;35400;45.472;-122.822;2022-09-29T18:13:20;17.20;99.90
6375;DHT22;35400;45.472;-122.822;2022-09-29T18:15:48;17.20;99.90
6375;DHT22;35400;45.472;-122.822;2022-09-29T18:18:17;17.20;99.90
6375;DHT22;35400;45.472;-122.822;2022-09-29T18:20:46;17.30;99.90
6375;DHT22;35400;45.472;-122.822;2022-09-29T18:23:13;17.30;99.90
6375;DHT22;35400;45.472;-122.822;2022-09-29T18:25:44;17.30;99.90
6375;DHT22;35400;45.472;-122.822;2022-09-29T18:28:12;17.40;99.90
6375;DHT22;35400;45.472;-122.822;2022-09-29T18:30:42;17.50;99.90
6375;DHT22;35400;45.472;-122.822;2022-09-29T18:33:12;17.60;99.90